createdAt,value
2023-04-27T00:03:07.512Z,1.17
2023-04-27T00:08:11.446Z,1.33
2023-04-27T00:13:13.651Z,1.10
2023-04-27T00:18:15.750Z,1.37
2023-04-27T00:23:19.179Z,1.13
2023-04-27T00:28:21.111Z,1.33
2023-04-27T00:33:23.478Z,1.67
2023-04-27T00:38:27.266Z,1.07
2023-04-27T00:43:29.605Z,1.53
2023-04-27T00:48:31.802Z,1.13
2023-04-27T00:53:36.787Z,1.40
2023-04-27T00:58:38.840Z,0.90
2023-04-27T01:03:41.258Z,1.23
2023-04-27T01:08:44.382Z,1.70
2023-04-27T01:13:46.507Z,1.10
2023-04-27T01:18:48.569Z,1.10
2023-04-27T01:23:53.278Z,1.03
2023-04-27T01:28:55.311Z,1.17
2023-04-27T01:33:57.700Z,0.80
2023-04-27T01:39:01.099Z,1.33
2023-04-27T01:44:03.453Z,0.97
2023-04-27T01:49:06.076Z,1.30
2023-04-27T01:54:09.157Z,1.10
2023-04-27T01:59:11.260Z,1.00
2023-04-27T02:04:13.317Z,1.00
2023-04-27T02:09:18.413Z,1.00
2023-04-27T02:14:20.344Z,0.90
2023-04-27T02:19:22.463Z,1.13
2023-04-27T02:24:25.846Z,1.20
2023-04-27T02:29:30.695Z,1.10
2023-04-27T02:34:33.275Z,1.13
2023-04-27T02:39:36.784Z,1.40
2023-04-27T02:44:39.072Z,1.00
2023-04-27T02:49:41.168Z,1.00
2023-04-27T02:54:44.522Z,1.07
2023-04-27T02:59:46.475Z,1.07
2023-04-27T03:04:52.784Z,1.10
2023-04-27T03:09:56.300Z,1.07
2023-04-27T03:14:58.364Z,1.23
2023-04-27T03:20:00.564Z,1.27
2023-04-27T03:25:04.219Z,1.20
2023-04-27T03:30:07.523Z,1.20
2023-04-27T03:35:09.839Z,1.47
2023-04-27T03:40:14.214Z,1.47
2023-04-27T03:45:16.578Z,1.27
2023-04-27T03:50:18.671Z,1.33
2023-04-27T03:55:21.673Z,1.17
2023-04-27T04:00:23.838Z,1.10
2023-04-27T04:05:25.836Z,1.20
2023-04-27T04:10:29.433Z,1.30
2023-04-27T04:15:31.453Z,1.17
2023-04-27T04:20:35.074Z,1.60
2023-04-27T04:25:38.367Z,1.20
2023-04-27T04:30:40.587Z,1.20
2023-04-27T04:35:42.693Z,1.60
2023-04-27T04:40:47.054Z,1.97
2023-04-27T04:45:49.250Z,1.23
2023-04-27T04:50:51.193Z,1.33
2023-04-27T04:55:54.748Z,1.03
2023-04-27T05:00:56.798Z,1.57
2023-04-27T05:05:58.531Z,1.30
2023-04-27T05:11:02.035Z,1.27
2023-04-27T05:16:04.893Z,1.20
2023-04-27T05:21:14.137Z,1.40
2023-04-27T05:26:18.341Z,1.27
2023-04-27T05:31:20.535Z,1.70
2023-04-27T05:36:22.342Z,1.20
2023-04-27T05:41:25.801Z,1.10
2023-04-27T05:46:28.171Z,1.23
2023-04-27T05:51:30.026Z,1.00
2023-04-27T05:56:33.510Z,1.03
2023-04-27T06:01:36.094Z,1.37
2023-04-27T06:06:38.330Z,1.10
2023-04-27T06:11:41.813Z,1.27
2023-04-27T06:16:44.020Z,1.40
2023-04-27T06:21:46.062Z,1.10
2023-04-27T06:26:49.584Z,1.33
2023-04-27T06:31:51.646Z,1.40
2023-04-27T06:36:53.753Z,1.17
2023-04-27T06:41:57.125Z,0.90
2023-04-27T06:46:59.519Z,1.43
2023-04-27T06:52:03.405Z,1.37
2023-04-27T06:57:06.833Z,1.30
2023-04-27T07:02:08.972Z,1.00
2023-04-27T07:07:11.466Z,1.20
2023-04-27T07:12:14.910Z,1.13
2023-04-27T07:17:17.115Z,1.33
2023-04-27T07:22:19.357Z,1.27
2023-04-27T07:27:22.857Z,1.30
2023-04-27T07:32:24.901Z,1.03
2023-04-27T07:37:27.169Z,1.20
2023-04-27T07:42:30.497Z,1.23
2023-04-27T07:47:32.369Z,1.30
2023-04-27T07:52:34.073Z,1.33
2023-04-27T07:57:37.501Z,1.60
2023-04-27T08:02:39.753Z,1.30
2023-04-27T08:07:44.482Z,1.20
2023-04-27T08:12:48.622Z,1.20
2023-04-27T08:17:50.729Z,1.10
2023-04-27T08:22:52.888Z,1.37
2023-04-27T08:27:56.270Z,1.47
2023-04-27T08:32:58.640Z,1.17
2023-04-27T08:38:00.710Z,1.40
2023-04-27T08:43:04.227Z,1.20
2023-04-27T08:48:06.754Z,1.50
2023-04-27T08:53:17.550Z,1.60
2023-04-27T08:58:20.995Z,2.30
2023-04-27T09:03:23.529Z,1.30
2023-04-27T09:08:25.748Z,1.80
2023-04-27T09:13:38.815Z,1.90
2023-04-27T09:18:42.781Z,1.50
2023-04-27T09:23:45.070Z,1.53
2023-04-27T09:28:49.681Z,1.90
2023-04-27T09:33:55.516Z,1.50
2023-04-27T09:38:58.720Z,1.17
2023-04-27T09:44:02.477Z,1.73
2023-04-27T09:49:05.397Z,1.60
2023-04-27T09:54:09.619Z,2.07
2023-04-27T09:59:36.284Z,1.73
2023-04-27T10:04:56.892Z,1.83
2023-04-27T10:10:02.435Z,1.57
2023-04-27T10:15:15.260Z,1.50
2023-04-27T10:20:17.953Z,2.00
2023-04-27T10:25:21.867Z,1.77
2023-04-27T10:30:27.805Z,1.30
2023-04-27T10:35:34.400Z,2.03
2023-04-27T10:40:37.486Z,1.57
2023-04-27T10:45:41.302Z,1.57
2023-04-27T10:50:44.420Z,1.57
2023-04-27T10:55:46.080Z,1.10
2023-04-27T11:00:49.658Z,1.07
2023-04-27T11:06:00.540Z,1.07
2023-04-27T11:11:03.074Z,1.00
2023-04-27T11:16:06.880Z,1.00
2023-04-27T11:21:11.245Z,0.70
2023-04-27T11:26:15.451Z,0.87
2023-04-27T11:31:18.978Z,1.20
2023-04-27T11:36:22.713Z,0.90
2023-04-27T11:41:33.729Z,1.03
2023-04-27T11:46:37.755Z,0.90
2023-04-27T11:51:40.420Z,1.00
2023-04-27T11:56:43.571Z,1.30
2023-04-27T12:01:47.468Z,0.80
2023-04-27T12:06:49.461Z,0.90
2023-04-27T12:11:51.530Z,1.07
2023-04-27T12:16:55.006Z,0.73
2023-04-27T12:21:57.928Z,0.80
2023-04-27T12:27:00.474Z,0.93
2023-04-27T12:32:04.647Z,0.50
2023-04-27T12:37:06.901Z,0.77
2023-04-27T12:42:09.056Z,0.70
2023-04-27T12:47:20.106Z,0.80
2023-04-27T12:52:30.749Z,0.63
2023-04-27T12:57:32.891Z,0.70
2023-04-27T13:02:36.419Z,0.80
2023-04-27T13:07:38.682Z,0.70
2023-04-27T13:12:40.822Z,0.83
2023-04-27T13:17:44.435Z,0.67
2023-04-27T13:22:46.643Z,0.60
2023-04-27T13:27:48.898Z,0.70
2023-04-27T13:32:52.418Z,0.70
2023-04-27T13:37:54.576Z,0.60
2023-04-27T13:42:56.690Z,0.90
2023-04-27T13:47:59.898Z,0.70
2023-04-27T13:53:02.006Z,0.60
2023-04-27T13:58:04.106Z,0.83
2023-04-27T14:03:07.422Z,0.90
2023-04-27T14:08:10.337Z,0.77
2023-04-27T14:13:12.646Z,0.80
2023-04-27T14:18:16.465Z,0.57
2023-04-27T14:23:18.447Z,0.70
2023-04-27T14:28:20.564Z,0.60
2023-04-27T14:33:24.007Z,0.60
2023-04-27T14:38:26.114Z,0.83
2023-04-27T14:43:28.596Z,0.70
2023-04-27T14:48:32.144Z,0.70
2023-04-27T14:53:34.354Z,0.73
2023-04-27T14:58:36.513Z,0.53
2023-04-27T15:03:40.070Z,0.80
2023-04-27T15:08:41.872Z,0.77
2023-04-27T15:13:44.040Z,0.63
2023-04-27T15:18:47.128Z,0.60
2023-04-27T15:23:49.394Z,0.80
2023-04-27T15:28:51.591Z,0.73
2023-04-27T15:33:55.089Z,1.10
2023-04-27T15:38:57.911Z,0.90
2023-04-27T15:44:00.041Z,0.90
2023-04-27T15:49:03.214Z,1.03
2023-04-27T15:54:06.013Z,1.10
2023-04-27T15:59:08.581Z,0.70
2023-04-27T16:04:12.289Z,0.80
2023-04-27T16:09:14.604Z,0.67
2023-04-27T16:14:16.963Z,1.13
2023-04-27T16:19:20.409Z,0.90
2023-04-27T16:24:22.637Z,0.60
2023-04-27T16:29:24.841Z,0.70
2023-04-27T16:34:28.375Z,0.87
2023-04-27T16:39:30.612Z,0.93
2023-04-27T16:44:32.746Z,0.93
2023-04-27T16:49:36.380Z,0.60
2023-04-27T16:54:38.831Z,0.80
2023-04-27T16:59:40.981Z,0.60
2023-04-27T17:04:44.465Z,0.90
2023-04-27T17:09:46.217Z,0.83
2023-04-27T17:14:48.652Z,0.80
2023-04-27T17:19:52.132Z,0.83
2023-04-27T17:24:54.317Z,0.87
2023-04-27T17:35:00.898Z,1.10
2023-04-27T17:40:03.097Z,0.90
2023-04-27T17:45:06.045Z,0.87
2023-04-27T17:50:10.023Z,0.90
2023-04-27T17:55:12.516Z,1.00
2023-04-27T18:00:15.144Z,0.70
2023-04-27T18:05:18.584Z,0.80
2023-04-27T18:10:20.618Z,0.67
2023-04-27T18:15:22.638Z,0.83
2023-04-27T18:20:26.703Z,1.50
2023-04-27T18:25:30.100Z,1.40
2023-04-27T18:30:32.881Z,1.13
2023-04-27T18:35:36.381Z,1.10
2023-04-27T18:40:38.734Z,1.03
2023-04-27T18:45:40.945Z,1.10
2023-04-27T18:50:44.295Z,1.07
2023-04-27T18:55:46.744Z,1.17
2023-04-27T19:00:48.994Z,1.10
2023-04-27T19:05:52.065Z,1.23
2023-04-27T19:10:53.810Z,1.00
2023-04-27T19:15:55.503Z,1.47
2023-04-27T19:20:58.754Z,1.00
2023-04-27T19:26:11.981Z,1.87
2023-04-27T19:31:15.696Z,1.03
2023-04-27T19:36:18.851Z,1.17
2023-04-27T19:41:21.121Z,1.77
2023-04-27T19:46:23.288Z,1.40
2023-04-27T19:51:26.584Z,1.53
2023-04-27T19:56:28.557Z,0.90
2023-04-27T20:01:31.079Z,1.30
2023-04-27T20:06:34.346Z,1.67
2023-04-27T20:11:36.307Z,1.40
2023-04-27T20:16:38.549Z,1.77
2023-04-27T20:21:42.254Z,1.20
2023-04-27T20:26:43.966Z,1.17
2023-04-27T20:31:45.872Z,1.17
2023-04-27T20:36:49.383Z,1.30
2023-04-27T20:41:51.150Z,1.00
2023-04-27T20:46:53.387Z,1.73
2023-04-27T20:51:56.865Z,1.60
2023-04-27T20:56:59.190Z,1.50
2023-04-27T21:02:01.498Z,1.20
2023-04-27T21:07:05.093Z,1.40
2023-04-27T21:12:07.053Z,1.17
2023-04-27T21:17:09.525Z,1.30
2023-04-27T21:22:13.283Z,1.30
2023-04-27T21:27:15.038Z,1.43
2023-04-27T21:32:17.138Z,1.63
2023-04-27T21:37:20.906Z,1.50
2023-04-27T21:42:23.174Z,1.50
2023-04-27T21:47:25.491Z,2.03
2023-04-27T21:52:28.951Z,1.50
2023-04-27T21:57:31.872Z,1.53
2023-04-27T22:02:33.817Z,1.50
2023-04-27T22:07:37.881Z,1.27
2023-04-27T22:12:40.429Z,1.10
2023-04-27T22:17:42.370Z,1.60
2023-04-27T22:22:45.805Z,1.63
2023-04-27T22:27:47.861Z,1.47
2023-04-27T22:32:50.325Z,1.40
2023-04-27T22:37:54.292Z,1.37
2023-04-27T22:42:56.629Z,1.40
2023-04-27T22:47:59.092Z,1.60
2023-04-27T22:53:02.554Z,1.40
2023-04-27T22:58:04.996Z,1.57
2023-04-27T23:03:06.826Z,1.50
2023-04-27T23:08:10.507Z,1.07
2023-04-27T23:13:12.746Z,1.37
2023-04-27T23:18:15.221Z,1.33
2023-04-27T23:23:19.164Z,1.27
2023-04-27T23:28:21.237Z,1.43
2023-04-27T23:33:23.618Z,1.40
2023-04-27T23:38:27.197Z,1.40
2023-04-27T23:43:29.360Z,1.03
2023-04-27T23:48:31.752Z,1.70
2023-04-27T23:53:35.335Z,1.13
2023-04-27T23:58:37.621Z,1.43
